aviador You're here:

KQDG Decoded Metar

ADANA/INCIRLIK in USA-MIL
Report Time2017-05-28 23:56:00
UTC Time2017-05-29 00:02:36
Flight Rules vfr VFR
Wind300° at 11 kt
W.Rank300° ranks 5
Current wind is above 300° avg. (10.6)
Visibility9999 m
Phenomena:N/A
Clouds:N/A
Expected CloudBase > 4,800 ft AGL from Temp-Dew spread
CeilingNone
Temp23°C (ISA +8)
Dew Point11°C (47% RH)
AAT19.4°C
QNH1010 hPa
Density Alt1,506 ft
Elevation240 ft
Report Wrong Elevation
Raw Report
METAR KQDG 282356Z AUTO 30011KT 9999 CLR 23/11 A2983 RMK AO2 SLP103
T02250107 10225 20106 58005 PWINO $=

Extra information for KQDG:More info

Metar Taf Metar & Taf Last 4 Metars F.Rules Stats Wind Profile Meteogram Temp Stats Airport Information Weather charts Add Link Nearby VenuesMetar ALERT Operation Metar Decoded Social comments